createdAt,value
2022-11-02T00:00:52.101Z,11.30
2022-11-02T00:03:20.050Z,11.20
2022-11-02T00:05:49.046Z,11.20
2022-11-02T00:08:19.061Z,11.30
2022-11-02T00:10:49.017Z,11.30
2022-11-02T00:13:15.950Z,11.30
2022-11-02T00:15:47.331Z,11.40
2022-11-02T00:18:15.735Z,11.40
2022-11-02T00:20:45.829Z,11.50
2022-11-02T00:23:15.927Z,11.60
2022-11-02T00:25:50.224Z,11.60
2022-11-02T00:28:18.198Z,11.60
2022-11-02T00:30:47.521Z,11.60
2022-11-02T00:33:17.546Z,11.60
2022-11-02T00:35:46.826Z,11.60
2022-11-02T00:38:13.918Z,11.70
2022-11-02T00:40:41.860Z,11.70
2022-11-02T00:43:12.199Z,11.80
2022-11-02T00:45:42.456Z,11.80
2022-11-02T00:48:12.427Z,11.80
2022-11-02T00:50:42.414Z,11.80
2022-11-02T00:53:10.297Z,11.80
2022-11-02T00:55:40.351Z,11.80
2022-11-02T00:58:09.289Z,11.80
2022-11-02T01:00:38.198Z,11.80
2022-11-02T01:03:07.321Z,11.80
2022-11-02T01:05:34.222Z,11.80
2022-11-02T01:08:01.224Z,11.70
2022-11-02T01:10:29.345Z,11.80
2022-11-02T01:13:00.658Z,11.80
2022-11-02T01:15:30.711Z,11.80
2022-11-02T01:18:00.822Z,11.80
2022-11-02T01:20:29.877Z,11.80
2022-11-02T01:23:00.120Z,11.80
2022-11-02T01:25:30.147Z,11.80
2022-11-02T01:28:05.669Z,11.80
2022-11-02T01:30:34.934Z,11.80
2022-11-02T01:33:05.917Z,11.80
2022-11-02T01:35:38.819Z,11.80
2022-11-02T01:38:06.163Z,11.80
2022-11-02T01:40:40.646Z,11.80
2022-11-02T01:43:27.731Z,11.80
2022-11-02T01:46:08.259Z,11.80
2022-11-02T01:48:49.188Z,11.80
2022-11-02T01:51:26.297Z,11.80
2022-11-02T01:54:02.749Z,11.80
2022-11-02T01:56:33.627Z,11.80
2022-11-02T01:59:07.053Z,11.80
2022-11-02T02:01:37.355Z,11.80
2022-11-02T02:04:08.287Z,11.80
2022-11-02T02:06:39.612Z,11.80
2022-11-02T02:09:10.155Z,11.70
2022-11-02T02:11:40.089Z,11.80
2022-11-02T02:14:12.177Z,11.80
2022-11-02T02:17:18.344Z,11.80
2022-11-02T02:20:11.242Z,11.70
2022-11-02T02:22:55.305Z,11.70
2022-11-02T02:25:42.308Z,11.70
2022-11-02T02:28:31.463Z,11.60
2022-11-02T02:31:31.813Z,11.60
2022-11-02T02:34:10.872Z,11.60
2022-11-02T02:36:40.925Z,11.60
2022-11-02T02:39:19.778Z,11.60
2022-11-02T02:41:59.649Z,11.70
2022-11-02T02:44:36.307Z,11.70
2022-11-02T02:47:21.477Z,11.70
2022-11-02T02:49:53.739Z,11.70
2022-11-02T02:52:23.600Z,11.60
2022-11-02T02:54:53.310Z,11.60
2022-11-02T02:57:23.905Z,11.60
2022-11-02T02:59:52.887Z,11.60
2022-11-02T03:02:30.164Z,11.60
2022-11-02T03:05:00.402Z,11.60
2022-11-02T03:07:33.841Z,11.70
2022-11-02T03:10:08.249Z,11.60
2022-11-02T03:13:07.719Z,11.70
2022-11-02T03:15:40.788Z,11.70
2022-11-02T03:18:37.350Z,11.70
2022-11-02T03:21:23.448Z,11.70
2022-11-02T03:24:04.102Z,11.70
2022-11-02T03:27:09.621Z,11.70
2022-11-02T03:30:05.466Z,11.70
2022-11-02T03:33:13.148Z,11.80
2022-11-02T03:35:56.702Z,11.90
2022-11-02T03:38:35.340Z,12.00
2022-11-02T03:41:06.290Z,12.00
2022-11-02T03:43:44.143Z,12.10
2022-11-02T03:46:16.437Z,12.20
2022-11-02T03:48:49.432Z,12.20
2022-11-02T03:51:22.745Z,12.20
2022-11-02T03:54:08.464Z,12.20
2022-11-02T03:59:35.145Z,12.20
2022-11-02T04:02:05.288Z,12.20
2022-11-02T04:04:33.303Z,12.20
2022-11-02T04:07:02.361Z,12.20
2022-11-02T04:09:29.259Z,12.20
2022-11-02T04:12:14.786Z,12.20
2022-11-02T04:14:44.814Z,12.20
2022-11-02T04:17:33.153Z,12.20
2022-11-02T04:19:59.991Z,12.20
2022-11-02T04:22:53.312Z,12.20
2022-11-02T04:25:26.276Z,12.20
2022-11-02T04:27:53.743Z,12.30
2022-11-02T04:30:22.966Z,12.20
2022-11-02T04:33:11.191Z,12.20
2022-11-02T04:35:40.142Z,12.20
2022-11-02T04:38:28.372Z,12.20
2022-11-02T04:41:16.285Z,12.20
2022-11-02T04:43:45.240Z,12.20
2022-11-02T04:46:15.242Z,12.20
2022-11-02T04:48:45.198Z,12.20
2022-11-02T04:51:15.765Z,12.20
2022-11-02T04:53:45.706Z,12.20
2022-11-02T04:56:15.996Z,12.20
2022-11-02T04:58:44.106Z,12.20
2022-11-02T05:01:15.076Z,12.20
2022-11-02T05:03:43.507Z,12.20
2022-11-02T05:06:11.342Z,12.20
2022-11-02T05:08:39.402Z,12.20
2022-11-02T05:11:10.713Z,12.20
2022-11-02T05:13:38.957Z,12.20
2022-11-02T05:16:06.911Z,12.20
2022-11-02T05:18:36.845Z,12.30
2022-11-02T05:21:13.981Z,12.20
2022-11-02T05:23:43.942Z,12.30
2022-11-02T05:26:13.943Z,12.30
2022-11-02T05:28:45.995Z,12.30
2022-11-02T05:31:15.992Z,12.20
2022-11-02T05:33:43.926Z,12.20
2022-11-02T05:36:11.166Z,12.20
2022-11-02T05:38:41.236Z,12.20
2022-11-02T05:41:09.551Z,12.20
2022-11-02T05:43:39.515Z,12.20
2022-11-02T05:46:09.638Z,12.20
2022-11-02T05:48:36.553Z,12.30
2022-11-02T05:51:07.082Z,12.30
2022-11-02T05:53:37.427Z,12.30
2022-11-02T05:56:08.712Z,12.20
2022-11-02T05:58:37.788Z,12.20
2022-11-02T06:01:08.491Z,12.20
2022-11-02T06:03:36.384Z,12.20
2022-11-02T06:06:09.834Z,12.20
2022-11-02T06:08:38.803Z,12.20
2022-11-02T06:11:07.219Z,12.20
2022-11-02T06:13:35.337Z,12.20
2022-11-02T06:16:06.575Z,12.20
2022-11-02T06:18:37.359Z,12.20
2022-11-02T06:21:07.331Z,12.20
2022-11-02T06:23:37.773Z,12.10
2022-11-02T06:26:07.796Z,12.20
2022-11-02T06:28:37.892Z,12.20
2022-11-02T06:31:10.970Z,12.20
2022-11-02T06:33:39.905Z,12.20
2022-11-02T06:36:08.931Z,12.20
2022-11-02T06:38:36.058Z,12.20
2022-11-02T06:41:07.017Z,12.20
2022-11-02T06:43:38.319Z,12.20
2022-11-02T06:46:08.925Z,12.20
2022-11-02T06:48:41.854Z,12.20
2022-11-02T06:51:11.796Z,12.30
2022-11-02T06:53:41.687Z,12.30
2022-11-02T06:56:12.668Z,12.30
2022-11-02T06:58:40.660Z,12.30
2022-11-02T07:01:09.873Z,12.40
2022-11-02T07:03:37.918Z,12.50
2022-11-02T07:06:11.252Z,12.80
2022-11-02T07:08:42.867Z,13.10
2022-11-02T07:11:18.946Z,13.50
2022-11-02T07:13:45.994Z,13.80
2022-11-02T07:16:14.141Z,14.20
2022-11-02T07:18:44.159Z,14.80
2022-11-02T07:21:13.311Z,15.50
2022-11-02T07:23:40.354Z,16.20
2022-11-02T07:26:07.245Z,16.70
2022-11-02T07:28:38.257Z,17.20
2022-11-02T07:31:07.343Z,17.60
2022-11-02T07:33:34.311Z,18.10
2022-11-02T07:36:04.159Z,18.60
2022-11-02T07:38:31.238Z,19.20
2022-11-02T07:40:59.197Z,19.90
2022-11-02T07:43:29.018Z,20.40
2022-11-02T07:45:57.926Z,20.70
2022-11-02T07:48:26.785Z,21.30
2022-11-02T07:50:53.744Z,21.80
2022-11-02T07:53:23.778Z,22.10
2022-11-02T07:55:50.857Z,22.50
2022-11-02T07:58:17.765Z,22.90
2022-11-02T08:00:46.954Z,23.10
2022-11-02T08:03:14.942Z,23.40
2022-11-02T08:05:43.400Z,23.60
2022-11-02T08:08:21.401Z,23.70
2022-11-02T08:10:51.029Z,23.50
2022-11-02T08:13:21.341Z,23.50
2022-11-02T08:15:54.760Z,23.90
2022-11-02T08:18:25.758Z,24.00
2022-11-02T08:20:57.652Z,24.40
2022-11-02T08:23:26.075Z,25.00
2022-11-02T08:25:58.429Z,25.10
2022-11-02T08:28:32.083Z,25.30
2022-11-02T08:31:00.081Z,25.30
2022-11-02T08:33:30.558Z,25.60
2022-11-02T08:36:03.800Z,26.00
2022-11-02T08:38:32.632Z,26.40
2022-11-02T08:41:00.768Z,26.80
2022-11-02T08:43:29.121Z,27.20
2022-11-02T08:46:16.605Z,27.80
2022-11-02T08:48:45.032Z,28.10
2022-11-02T08:51:15.238Z,28.20
2022-11-02T08:53:44.725Z,28.50
2022-11-02T08:56:15.273Z,28.40
2022-11-02T08:58:43.195Z,28.20
2022-11-02T09:01:11.189Z,28.00
2022-11-02T09:03:42.385Z,28.20
2022-11-02T09:06:11.345Z,28.50
2022-11-02T09:08:41.283Z,28.90
2022-11-02T09:11:10.239Z,29.30
2022-11-02T09:13:40.243Z,29.50
2022-11-02T09:16:10.345Z,29.60
2022-11-02T09:18:40.394Z,29.40
2022-11-02T09:21:09.420Z,29.40
2022-11-02T09:23:39.521Z,29.70
2022-11-02T09:26:07.597Z,30.00
2022-11-02T09:28:36.537Z,29.90
2022-11-02T09:31:07.317Z,29.90
2022-11-02T09:33:37.686Z,29.80
2022-11-02T09:36:06.796Z,29.50
2022-11-02T09:38:33.946Z,29.50
2022-11-02T09:41:13.798Z,29.40
2022-11-02T09:44:12.702Z,29.50
2022-11-02T09:46:43.054Z,29.40
2022-11-02T09:49:17.066Z,29.10
2022-11-02T09:51:50.724Z,28.80
2022-11-02T09:54:20.951Z,28.60
2022-11-02T09:56:51.567Z,28.40
2022-11-02T09:59:22.010Z,28.00
2022-11-02T10:02:27.586Z,27.70
2022-11-02T10:05:04.419Z,27.60
2022-11-02T10:07:50.267Z,27.80
2022-11-02T10:10:29.715Z,28.10
2022-11-02T10:12:56.565Z,28.20
2022-11-02T10:15:32.776Z,27.90
2022-11-02T10:18:01.407Z,27.60
2022-11-02T10:20:51.270Z,27.20
2022-11-02T10:23:40.490Z,27.20
2022-11-02T10:26:12.838Z,27.00
2022-11-02T10:28:47.904Z,26.00
2022-11-02T10:31:31.166Z,24.60
2022-11-02T10:34:21.870Z,23.00
2022-11-02T10:37:08.792Z,21.60
2022-11-02T10:39:53.866Z,20.60
2022-11-02T10:42:31.789Z,20.20
2022-11-02T10:45:20.406Z,21.00
2022-11-02T10:47:47.225Z,22.00
2022-11-02T10:50:35.401Z,22.90
2022-11-02T10:53:35.354Z,23.60
2022-11-02T10:56:17.700Z,23.90
2022-11-02T10:59:17.171Z,24.10
2022-11-02T11:01:59.416Z,24.40
2022-11-02T11:04:31.954Z,24.40
2022-11-02T11:07:08.063Z,24.20
2022-11-02T11:09:56.125Z,24.30
2022-11-02T11:12:41.110Z,24.00
2022-11-02T11:21:03.515Z,23.20
2022-11-02T11:23:38.491Z,23.10
2022-11-02T11:26:12.110Z,23.20
2022-11-02T11:28:52.654Z,23.20
2022-11-02T11:31:21.259Z,22.90
2022-11-02T11:33:55.183Z,22.50
2022-11-02T11:36:44.123Z,22.20
2022-11-02T11:39:28.378Z,21.80
2022-11-02T11:41:57.026Z,21.30
2022-11-02T11:44:27.060Z,20.80
2022-11-02T11:46:58.141Z,20.60
2022-11-02T11:49:55.068Z,20.60
2022-11-02T11:52:32.089Z,20.40
2022-11-02T11:55:24.059Z,20.30
2022-11-02T11:58:23.714Z,20.20
2022-11-02T12:01:16.659Z,20.00
2022-11-02T12:03:55.568Z,19.80
2022-11-02T12:06:34.479Z,19.70
2022-11-02T12:09:22.839Z,19.70
2022-11-02T12:12:26.307Z,19.60
2022-11-02T12:15:04.032Z,19.40
2022-11-02T12:18:02.471Z,19.20
2022-11-02T12:20:56.449Z,18.90
2022-11-02T12:23:49.625Z,18.60
2022-11-02T12:26:32.057Z,18.40
2022-11-02T12:29:29.931Z,18.50
2022-11-02T12:32:32.231Z,18.60
2022-11-02T12:35:30.805Z,18.40
2022-11-02T12:38:32.812Z,18.40
2022-11-02T12:41:16.356Z,18.20
2022-11-02T12:43:48.207Z,18.10
2022-11-02T12:46:38.005Z,18.10
2022-11-02T12:49:28.322Z,18.10
2022-11-02T12:52:19.940Z,18.20
2022-11-02T12:54:53.532Z,18.20
2022-11-02T12:57:24.343Z,18.20
2022-11-02T13:00:26.927Z,18.20
2022-11-02T13:03:23.861Z,18.30
2022-11-02T13:05:57.538Z,18.20
2022-11-02T13:08:42.584Z,18.20
2022-11-02T13:11:22.566Z,18.20
2022-11-02T13:13:55.735Z,18.30
2022-11-02T13:17:01.599Z,18.30
2022-11-02T13:19:36.467Z,18.10
2022-11-02T13:22:04.897Z,18.00
2022-11-02T13:24:36.673Z,17.90
2022-11-02T13:27:21.845Z,17.80
2022-11-02T13:29:58.465Z,17.70
2022-11-02T13:32:45.869Z,17.60
2022-11-02T13:35:30.634Z,17.60
2022-11-02T13:38:33.841Z,17.50
2022-11-02T13:41:29.871Z,17.40
2022-11-02T13:44:26.543Z,17.30
2022-11-02T13:47:19.156Z,17.30
2022-11-02T13:49:53.364Z,17.20
2022-11-02T13:52:33.882Z,17.10
2022-11-02T13:55:05.484Z,17.00
2022-11-02T13:57:44.982Z,16.90
2022-11-02T14:00:23.992Z,16.80
2022-11-02T14:03:21.114Z,16.90
2022-11-02T14:06:09.635Z,16.70
2022-11-02T14:08:39.895Z,16.70
2022-11-02T14:11:09.862Z,16.70
2022-11-02T14:13:54.063Z,16.70
2022-11-02T14:16:46.123Z,16.50
2022-11-02T14:19:45.518Z,16.40
2022-11-02T14:22:16.202Z,16.20
2022-11-02T14:24:43.102Z,16.10
2022-11-02T14:27:13.082Z,16.00
2022-11-02T14:29:44.999Z,16.00
2022-11-02T14:32:21.824Z,15.90
2022-11-02T14:35:19.798Z,15.90
2022-11-02T14:38:15.079Z,15.90
2022-11-02T14:41:16.370Z,15.80
2022-11-02T14:44:07.386Z,15.70
2022-11-02T14:46:46.513Z,15.60
2022-11-02T14:49:23.070Z,15.60
2022-11-02T14:52:04.495Z,15.60
2022-11-02T14:54:39.439Z,15.50
2022-11-02T14:57:27.037Z,15.40
2022-11-02T14:59:58.784Z,15.40
2022-11-02T15:02:43.211Z,15.30
2022-11-02T15:05:33.933Z,15.20
2022-11-02T15:08:33.238Z,15.20
2022-11-02T15:11:37.776Z,15.10
2022-11-02T15:14:42.607Z,15.10
2022-11-02T15:17:18.625Z,15.00
2022-11-02T15:19:53.770Z,15.00
2022-11-02T15:22:32.681Z,15.00
2022-11-02T15:25:21.554Z,14.90
2022-11-02T15:27:52.236Z,15.00
2022-11-02T15:30:27.801Z,14.90
2022-11-02T15:33:04.172Z,14.90
2022-11-02T15:35:37.604Z,14.80
2022-11-02T15:38:17.543Z,14.80
2022-11-02T15:41:00.908Z,14.80
2022-11-02T15:43:46.994Z,14.70
2022-11-02T15:46:42.238Z,14.60
2022-11-02T15:49:11.909Z,14.60
2022-11-02T15:51:56.108Z,14.60
2022-11-02T15:54:46.383Z,14.60
2022-11-02T15:57:41.281Z,14.50
2022-11-02T16:00:17.042Z,14.50
2022-11-02T16:02:52.972Z,14.50
2022-11-02T16:05:27.882Z,14.50
2022-11-02T16:08:10.878Z,14.40
2022-11-02T16:10:39.356Z,14.40
2022-11-02T16:13:18.674Z,14.40
2022-11-02T16:15:50.567Z,14.30
2022-11-02T16:18:29.392Z,14.30
2022-11-02T16:21:04.059Z,14.30
2022-11-02T16:23:37.170Z,14.30
2022-11-02T16:26:13.655Z,14.20
2022-11-02T16:28:42.602Z,14.20
2022-11-02T16:31:32.092Z,14.20
2022-11-02T16:34:31.995Z,14.10
2022-11-02T16:37:08.941Z,14.10
2022-11-02T16:39:39.787Z,14.10
2022-11-02T16:42:22.991Z,14.00
2022-11-02T16:45:01.029Z,14.00
2022-11-02T16:47:42.079Z,14.00
2022-11-02T16:50:25.718Z,14.00
2022-11-02T16:53:01.481Z,14.00
2022-11-02T16:55:46.466Z,14.00
2022-11-02T16:58:24.368Z,13.90
2022-11-02T17:01:05.339Z,13.90
2022-11-02T17:03:34.895Z,13.90
2022-11-02T17:06:07.060Z,13.90
2022-11-02T17:08:41.697Z,13.80
2022-11-02T17:11:14.937Z,13.80
2022-11-02T17:13:51.683Z,13.80
2022-11-02T17:16:19.304Z,13.80
2022-11-02T17:18:46.620Z,13.80
2022-11-02T17:21:14.840Z,13.70
2022-11-02T17:23:45.882Z,13.70
2022-11-02T17:26:29.160Z,13.70
2022-11-02T17:28:58.705Z,13.60
2022-11-02T17:31:25.693Z,13.60
2022-11-02T17:33:54.387Z,13.60
2022-11-02T17:36:22.878Z,13.60
2022-11-02T17:38:50.850Z,13.60
2022-11-02T17:41:40.519Z,13.70
2022-11-02T17:44:16.662Z,13.70
2022-11-02T17:46:46.702Z,13.70
2022-11-02T17:49:19.608Z,13.70
2022-11-02T17:52:02.704Z,13.70
2022-11-02T17:54:32.735Z,13.70
2022-11-02T17:57:05.382Z,13.70
2022-11-02T17:59:33.329Z,13.60
2022-11-02T18:02:00.796Z,13.70
2022-11-02T18:04:28.966Z,13.60
2022-11-02T18:06:58.971Z,13.70
2022-11-02T18:09:29.298Z,13.70
2022-11-02T18:11:56.411Z,13.70
2022-11-02T18:14:26.377Z,13.60
2022-11-02T18:16:54.500Z,13.60
2022-11-02T18:19:24.445Z,13.70
2022-11-02T18:21:52.362Z,13.70
2022-11-02T18:24:20.526Z,13.70
2022-11-02T18:26:48.439Z,13.60
2022-11-02T18:29:16.364Z,13.60
2022-11-02T18:31:43.394Z,13.60
2022-11-02T18:34:13.300Z,13.60
2022-11-02T18:36:40.914Z,13.60
2022-11-02T18:39:09.100Z,13.70
2022-11-02T18:41:37.644Z,13.60
2022-11-02T18:44:13.494Z,13.60
2022-11-02T18:46:41.880Z,13.60
2022-11-02T18:49:11.936Z,13.60
2022-11-02T18:51:51.584Z,13.60
2022-11-02T18:54:20.746Z,13.70
2022-11-02T18:56:50.778Z,13.60
2022-11-02T18:59:18.763Z,13.70
2022-11-02T19:01:46.764Z,13.60
2022-11-02T19:04:17.678Z,13.60
2022-11-02T19:07:06.521Z,13.60
2022-11-02T19:09:35.700Z,13.60
2022-11-02T19:12:09.307Z,13.60
2022-11-02T19:14:47.092Z,13.60
2022-11-02T19:17:15.155Z,13.60
2022-11-02T19:19:46.664Z,13.60
2022-11-02T19:22:25.182Z,13.60
2022-11-02T19:24:52.617Z,13.60
2022-11-02T19:27:28.895Z,13.60
2022-11-02T19:29:56.824Z,13.60
2022-11-02T19:32:27.059Z,13.50
2022-11-02T19:34:56.046Z,13.50
2022-11-02T19:37:31.773Z,13.50
2022-11-02T19:40:04.782Z,13.50
2022-11-02T19:42:32.776Z,13.50
2022-11-02T19:45:01.120Z,13.50
2022-11-02T19:47:34.432Z,13.50
2022-11-02T19:50:04.637Z,13.50
2022-11-02T19:52:37.927Z,13.50
2022-11-02T19:55:07.427Z,13.50
2022-11-02T19:57:35.371Z,13.50
2022-11-02T20:00:02.501Z,13.40
2022-11-02T20:02:32.531Z,13.40
2022-11-02T20:05:02.767Z,13.40
2022-11-02T20:07:34.763Z,13.40
2022-11-02T20:10:02.715Z,13.40
2022-11-02T20:12:36.159Z,13.40
2022-11-02T20:15:04.327Z,13.40
2022-11-02T20:17:42.176Z,13.40
2022-11-02T20:20:16.891Z,13.40
2022-11-02T20:22:43.989Z,13.40
2022-11-02T20:25:14.590Z,13.50
2022-11-02T20:27:45.274Z,13.50
2022-11-02T20:30:19.426Z,13.40
2022-11-02T20:32:49.714Z,13.40
2022-11-02T20:35:24.651Z,13.40
2022-11-02T20:37:53.994Z,13.50
2022-11-02T20:40:20.915Z,13.50
2022-11-02T20:42:49.883Z,13.50
2022-11-02T20:45:18.056Z,13.50
2022-11-02T20:47:44.979Z,13.50
2022-11-02T20:50:16.004Z,13.50
2022-11-02T20:52:45.308Z,13.50
2022-11-02T20:55:12.208Z,13.40
2022-11-02T20:57:39.247Z,13.40
2022-11-02T21:00:06.845Z,13.50
2022-11-02T21:02:33.776Z,13.40
2022-11-02T21:05:00.893Z,13.40
2022-11-02T21:07:27.747Z,13.40
2022-11-02T21:09:54.692Z,13.40
2022-11-02T21:12:39.893Z,13.40
2022-11-02T21:15:07.354Z,13.40
2022-11-02T21:17:35.119Z,13.50
2022-11-02T21:20:28.476Z,13.40
2022-11-02T21:22:52.436Z,13.50
2022-11-02T21:25:19.419Z,13.40
2022-11-02T21:27:50.987Z,13.50
2022-11-02T21:30:18.780Z,13.50
2022-11-02T21:32:46.013Z,13.40
2022-11-02T21:35:12.927Z,13.50
2022-11-02T21:37:39.782Z,13.50
2022-11-02T21:40:07.346Z,13.40
2022-11-02T21:42:34.241Z,13.40
2022-11-02T21:45:01.201Z,13.40
2022-11-02T21:47:34.202Z,13.40
2022-11-02T21:50:02.420Z,13.40
2022-11-02T21:52:30.327Z,13.40
2022-11-02T21:54:57.256Z,13.40
2022-11-02T21:57:24.172Z,13.40
2022-11-02T21:59:51.051Z,13.40
2022-11-02T22:02:20.158Z,13.40
2022-11-02T22:04:53.576Z,13.40
2022-11-02T22:07:23.639Z,13.30
2022-11-02T22:09:50.601Z,13.30
2022-11-02T22:12:37.967Z,13.30
2022-11-02T22:15:05.403Z,13.30
2022-11-02T22:20:19.161Z,13.30
2022-11-02T22:22:48.107Z,13.30
2022-11-02T22:25:18.011Z,13.30
2022-11-02T22:27:48.062Z,13.30
2022-11-02T22:30:18.009Z,13.30
2022-11-02T22:32:44.860Z,13.30
2022-11-02T22:35:12.908Z,13.30
2022-11-02T22:37:58.250Z,13.20
2022-11-02T22:40:25.257Z,13.20
2022-11-02T22:42:57.156Z,13.20
2022-11-02T22:45:24.141Z,13.20
2022-11-02T22:47:54.159Z,13.20
2022-11-02T22:50:26.808Z,13.20
2022-11-02T22:52:56.882Z,13.20
2022-11-02T22:55:25.871Z,13.30
2022-11-02T22:57:59.761Z,13.30
2022-11-02T23:00:28.150Z,13.30
2022-11-02T23:02:55.070Z,13.30
2022-11-02T23:05:23.147Z,13.30
2022-11-02T23:07:51.182Z,13.30
2022-11-02T23:10:38.499Z,13.30
2022-11-02T23:13:05.657Z,13.30
2022-11-02T23:15:32.677Z,13.30
2022-11-02T23:17:59.667Z,13.30
2022-11-02T23:20:32.598Z,13.30
2022-11-02T23:23:18.383Z,13.40
2022-11-02T23:25:53.731Z,13.30
2022-11-02T23:28:41.688Z,13.30
2022-11-02T23:31:34.058Z,13.30
2022-11-02T23:34:04.021Z,13.30
2022-11-02T23:36:31.051Z,13.30
2022-11-02T23:39:17.345Z,13.30
2022-11-02T23:41:47.406Z,13.30
2022-11-02T23:44:19.375Z,13.30
2022-11-02T23:46:51.440Z,13.30
2022-11-02T23:49:19.619Z,13.30
2022-11-02T23:52:07.051Z,13.30
2022-11-02T23:54:54.290Z,13.30
2022-11-02T23:57:25.646Z,13.30
2022-11-02T23:59:54.623Z,13.40
